sensor_id;sensor_type;location;lat;lon;timestamp;P1;durP1;ratioP1;P2;durP2;ratioP2
80510;SDS011;69840;53.040;8.600;2023-08-30T00:13:52;3.67;;;2.60;;
80510;SDS011;69840;53.040;8.600;2023-08-30T00:39:11;4.18;;;3.00;;
80510;SDS011;69840;53.040;8.600;2023-08-30T01:04:32;9.48;;;3.70;;
80510;SDS011;69840;53.040;8.600;2023-08-30T01:29:51;4.40;;;3.08;;
80510;SDS011;69840;53.040;8.600;2023-08-30T01:55:15;6.03;;;3.47;;
80510;SDS011;69840;53.040;8.600;2023-08-30T02:20:39;5.00;;;3.15;;
80510;SDS011;69840;53.040;8.600;2023-08-30T03:11:20;7.97;;;4.22;;
80510;SDS011;69840;53.040;8.600;2023-08-30T03:36:43;7.63;;;4.05;;
80510;SDS011;69840;53.040;8.600;2023-08-30T04:02:03;9.80;;;5.45;;
80510;SDS011;69840;53.040;8.600;2023-08-30T04:27:23;9.18;;;5.78;;
80510;SDS011;69840;53.040;8.600;2023-08-30T04:52:42;8.10;;;4.97;;
80510;SDS011;69840;53.040;8.600;2023-08-30T05:18:03;8.93;;;5.30;;
80510;SDS011;69840;53.040;8.600;2023-08-30T05:43:23;10.10;;;6.07;;
80510;SDS011;69840;53.040;8.600;2023-08-30T06:08:42;10.60;;;6.63;;
80510;SDS011;69840;53.040;8.600;2023-08-30T06:34:01;16.00;;;8.60;;
80510;SDS011;69840;53.040;8.600;2023-08-30T06:59:21;13.68;;;6.35;;
80510;SDS011;69840;53.040;8.600;2023-08-30T07:24:40;12.38;;;6.57;;
80510;SDS011;69840;53.040;8.600;2023-08-30T07:49:59;9.75;;;5.53;;
80510;SDS011;69840;53.040;8.600;2023-08-30T08:15:18;8.13;;;4.88;;
80510;SDS011;69840;53.040;8.600;2023-08-30T08:40:38;9.43;;;4.07;;
80510;SDS011;69840;53.040;8.600;2023-08-30T09:06:02;6.55;;;3.30;;
80510;SDS011;69840;53.040;8.600;2023-08-30T09:31:22;6.18;;;4.40;;
80510;SDS011;69840;53.040;8.600;2023-08-30T09:56:42;9.57;;;4.78;;
80510;SDS011;69840;53.040;8.600;2023-08-30T10:22:05;8.50;;;4.68;;
80510;SDS011;69840;53.040;8.600;2023-08-30T10:47:36;11.15;;;5.35;;
80510;SDS011;69840;53.040;8.600;2023-08-30T11:12:57;9.95;;;5.55;;
80510;SDS011;69840;53.040;8.600;2023-08-30T11:38:17;8.75;;;5.50;;
80510;SDS011;69840;53.040;8.600;2023-08-30T12:03:37;9.95;;;5.53;;
80510;SDS011;69840;53.040;8.600;2023-08-30T12:28:56;9.00;;;5.47;;
80510;SDS011;69840;53.040;8.600;2023-08-30T12:54:15;10.43;;;4.78;;
80510;SDS011;69840;53.040;8.600;2023-08-30T13:19:35;11.13;;;7.28;;
80510;SDS011;69840;53.040;8.600;2023-08-30T13:44:54;13.68;;;5.47;;
80510;SDS011;69840;53.040;8.600;2023-08-30T14:10:13;12.70;;;6.68;;
80510;SDS011;69840;53.040;8.600;2023-08-30T14:35:40;15.20;;;7.35;;
80510;SDS011;69840;53.040;8.600;2023-08-30T15:01:04;14.10;;;7.15;;
80510;SDS011;69840;53.040;8.600;2023-08-30T15:26:23;10.23;;;5.18;;
80510;SDS011;69840;53.040;8.600;2023-08-30T15:51:44;6.22;;;3.67;;
80510;SDS011;69840;53.040;8.600;2023-08-30T16:17:03;7.63;;;5.88;;
80510;SDS011;69840;53.040;8.600;2023-08-30T16:42:22;8.23;;;4.07;;
80510;SDS011;69840;53.040;8.600;2023-08-30T17:07:41;7.53;;;4.90;;
80510;SDS011;69840;53.040;8.600;2023-08-30T17:33:01;12.07;;;6.28;;
80510;SDS011;69840;53.040;8.600;2023-08-30T17:58:20;9.65;;;6.00;;
80510;SDS011;69840;53.040;8.600;2023-08-30T18:23:40;9.55;;;5.78;;
80510;SDS011;69840;53.040;8.600;2023-08-30T18:49:00;1.25;;;0.70;;
80510;SDS011;69840;53.040;8.600;2023-08-30T19:14:19;1.42;;;0.50;;
80510;SDS011;69840;53.040;8.600;2023-08-30T19:39:39;0.73;;;0.60;;
80510;SDS011;69840;53.040;8.600;2023-08-30T20:04:58;1.70;;;0.70;;
80510;SDS011;69840;53.040;8.600;2023-08-30T20:30:17;2.45;;;1.20;;
80510;SDS011;69840;53.040;8.600;2023-08-30T20:55:40;2.90;;;1.58;;
80510;SDS011;69840;53.040;8.600;2023-08-30T21:21:00;3.15;;;1.95;;
80510;SDS011;69840;53.040;8.600;2023-08-30T21:46:19;4.72;;;2.08;;
80510;SDS011;69840;53.040;8.600;2023-08-30T22:11:38;2.95;;;1.98;;
80510;SDS011;69840;53.040;8.600;2023-08-30T22:36:58;2.58;;;1.65;;
80510;SDS011;69840;53.040;8.600;2023-08-30T23:02:17;3.72;;;2.40;;
80510;SDS011;69840;53.040;8.600;2023-08-30T23:27:36;3.88;;;1.75;;
80510;SDS011;69840;53.040;8.600;2023-08-30T23:52:55;4.88;;;1.90;;
